Time;durP1;ratioP1;P1;durP2;ratioP2;P2;SDS_P1;SDS_P2;PMS_P1;PMS_P2;Temp;Humidity;BMP_temperature;BMP_pressure;BME280_temperature;BME280_humidity;BME280_pressure;Samples;Min_cycle;Max_cycle;Signal;HPM_P1;HPM_P2
2023/12/19 00:00:59;;;;;;;9.20;7.43;;;6.20;64.60;;;;;;4995634;28;20453;-59
2023/12/19 00:03:25;;;;;;;9.37;7.47;;;6.10;65.70;;;;;;4996624;28;20189;-58
2023/12/19 00:05:50;;;;;;;7.30;6.60;;;6.00;66.40;;;;;;4995065;28;20199;-59
2023/12/19 00:08:16;;;;;;;9.00;6.70;;;6.20;66.30;;;;;;4997348;28;20643;-59
2023/12/19 00:10:42;;;;;;;8.33;7.43;;;6.10;66.40;;;;;;5001919;28;20195;-58
2023/12/19 00:13:08;;;;;;;9.87;7.70;;;6.00;65.90;;;;;;4999667;28;20254;-57
2023/12/19 00:15:33;;;;;;;8.90;8.00;;;5.80;66.40;;;;;;5005976;28;20472;-57
2023/12/19 00:17:59;;;;;;;8.67;7.33;;;5.90;66.80;;;;;;4999836;28;20219;-59
2023/12/19 00:20:25;;;;;;;10.97;8.17;;;5.90;66.30;;;;;;5004857;28;20755;-57
2023/12/19 00:22:51;;;;;;;8.77;7.43;;;6.00;66.30;;;;;;5004976;28;20261;-59
2023/12/19 00:25:16;;;;;;;8.50;7.60;;;6.10;65.80;;;;;;5002915;28;20540;-59
2023/12/19 00:27:42;;;;;;;8.70;7.80;;;6.20;65.20;;;;;;4996827;28;20179;-58
2023/12/19 00:30:08;;;;;;;7.67;6.90;;;6.00;65.30;;;;;;4996707;28;20650;-59
2023/12/19 00:32:33;;;;;;;12.53;8.20;;;6.10;65.60;;;;;;5000055;28;20213;-56
2023/12/19 00:34:59;;;;;;;16.50;8.13;;;5.90;64.50;;;;;;4998886;28;20263;-59
2023/12/19 00:37:25;;;;;;;11.27;10.00;;;5.60;65.10;;;;;;5004694;28;20564;-58
2023/12/19 00:39:50;;;;;;;9.60;7.43;;;5.10;67.10;;;;;;4997979;28;20182;-59
2023/12/19 00:42:16;;;;;;;8.03;6.73;;;4.90;68.90;;;;;;4998998;28;20230;-58
2023/12/19 00:44:41;;;;;;;7.10;6.07;;;5.00;69.20;;;;;;4993885;28;20273;-59
2023/12/19 00:47:07;;;;;;;9.00;7.10;;;5.10;69.00;;;;;;5002873;28;20218;-58
2023/12/19 00:49:32;;;;;;;8.23;7.03;;;5.40;68.30;;;;;;4997744;28;20190;-56
2023/12/19 00:51:58;;;;;;;8.47;6.87;;;5.50;67.10;;;;;;4996538;28;20217;-58
2023/12/19 00:54:23;;;;;;;9.77;7.33;;;5.60;66.60;;;;;;5007581;28;20561;-58
2023/12/19 00:56:49;;;;;;;8.57;6.93;;;5.60;66.60;;;;;;5002708;28;20267;-59
2023/12/19 00:59:14;;;;;;;7.90;7.10;;;5.80;66.50;;;;;;5001940;28;20281;-58
2023/12/19 01:01:40;;;;;;;7.43;6.73;;;5.90;66.20;;;;;;5006605;28;20335;-58
2023/12/19 01:04:06;;;;;;;7.33;6.40;;;6.00;65.60;;;;;;5000444;28;20187;-60
2023/12/19 01:06:31;;;;;;;7.67;6.57;;;6.00;66.30;;;;;;5000171;28;20216;-58
2023/12/19 01:08:57;;;;;;;8.27;6.77;;;5.80;66.00;;;;;;5000870;28;20986;-57
2023/12/19 01:11:23;;;;;;;7.97;7.17;;;5.80;66.20;;;;;;4999882;28;20194;-58
2023/12/19 01:13:48;;;;;;;7.57;6.80;;;5.70;66.10;;;;;;4993309;28;20197;-59
2023/12/19 01:16:15;;;;;;;7.43;6.73;;;5.90;66.70;;;;;;4998886;28;20214;-59
2023/12/19 01:18:41;;;;;;;7.67;6.87;;;6.10;65.90;;;;;;5001217;28;20265;-58
2023/12/19 01:21:07;;;;;;;7.47;6.70;;;6.20;64.40;;;;;;5004045;28;20916;-59
2023/12/19 01:23:32;;;;;;;7.50;6.70;;;6.00;64.70;;;;;;5003112;28;20185;-59
2023/12/19 01:25:58;;;;;;;7.37;6.67;;;5.80;65.20;;;;;;5001415;28;20201;-58
2023/12/19 01:28:23;;;;;;;7.87;6.43;;;5.60;65.50;;;;;;4997903;28;20651;-57
2023/12/19 01:30:49;;;;;;;7.07;6.37;;;5.80;65.50;;;;;;4997995;28;20214;-59
2023/12/19 01:33:14;;;;;;;7.83;6.97;;;6.00;64.70;;;;;;5000150;28;20561;-57
2023/12/19 01:35:40;;;;;;;8.20;7.40;;;6.10;63.90;;;;;;5001825;28;20621;-58
2023/12/19 01:38:05;;;;;;;8.43;7.53;;;6.30;63.30;;;;;;4999374;28;20314;-59
2023/12/19 01:40:31;;;;;;;7.93;6.90;;;6.30;62.40;;;;;;4999972;28;20183;-60
2023/12/19 01:43:00;;;;;;;8.30;6.60;;;6.40;61.80;;;;;;5003966;28;20204;-58
2023/12/19 01:45:27;;;;;;;7.77;6.33;;;6.40;61.30;;;;;;4999645;28;20317;-59
2023/12/19 01:47:53;;;;;;;7.23;6.53;;;6.40;61.40;;;;;;5000698;28;20449;-58
2023/12/19 01:50:20;;;;;;;7.50;6.80;;;6.50;61.70;;;;;;5000451;28;20850;-60
2023/12/19 01:52:50;;;;;;;9.20;7.13;;;6.50;61.60;;;;;;4995036;28;20218;-58
2023/12/19 01:55:17;;;;;;;8.13;7.37;;;6.60;61.40;;;;;;4999764;28;20473;-58
2023/12/19 01:57:43;;;;;;;6.93;6.33;;;6.60;61.20;;;;;;5004699;28;20465;-59
2023/12/19 02:00:12;;;;;;;9.60;8.63;;;6.50;61.40;;;;;;4995438;28;20952;-59
2023/12/19 02:02:37;;;;;;;7.80;6.87;;;6.30;61.10;;;;;;4999882;28;20833;-59
2023/12/19 02:05:04;;;;;;;7.67;6.90;;;6.20;61.40;;;;;;4997311;28;20441;-59
2023/12/19 02:07:29;;;;;;;9.00;7.87;;;6.30;61.60;;;;;;5004339;28;20189;-58
2023/12/19 02:09:55;;;;;;;7.63;6.63;;;6.30;61.30;;;;;;4993809;28;20547;-60
2023/12/19 02:12:21;;;;;;;7.50;6.60;;;6.20;61.20;;;;;;5000554;28;20190;-58
2023/12/19 02:14:48;;;;;;;8.50;7.27;;;6.00;61.30;;;;;;4999798;28;20206;-58
2023/12/19 02:17:14;;;;;;;8.10;7.37;;;5.90;61.40;;;;;;4999804;28;20477;-58
2023/12/19 02:19:51;;;;;;;7.77;7.00;;;5.40;62.80;;;;;;5004017;28;20445;-61
2023/12/19 02:22:17;;;;;;;9.57;6.87;;;5.20;63.80;;;;;;4999024;28;20948;-58
2023/12/19 02:24:43;;;;;;;7.77;6.87;;;4.90;64.60;;;;;;4992813;28;20460;-56
2023/12/19 02:27:10;;;;;;;8.03;6.97;;;5.10;65.00;;;;;;4999344;28;20584;-57
2023/12/19 02:29:35;;;;;;;9.27;7.93;;;5.30;64.30;;;;;;5003892;28;20468;-59
2023/12/19 02:32:01;;;;;;;6.80;6.10;;;5.50;63.80;;;;;;4997970;28;20999;-58
2023/12/19 02:34:26;;;;;;;7.57;6.77;;;5.60;62.90;;;;;;5004955;28;20207;-57
2023/12/19 02:36:52;;;;;;;8.47;6.97;;;5.60;62.30;;;;;;5000272;28;20240;-59
2023/12/19 02:39:18;;;;;;;6.67;6.00;;;5.50;62.70;;;;;;5004346;28;20210;-59
2023/12/19 02:41:43;;;;;;;8.17;6.80;;;5.40;62.90;;;;;;4996146;28;20198;-58
2023/12/19 02:44:09;;;;;;;8.40;7.03;;;5.40;63.50;;;;;;5003481;28;20225;-58
2023/12/19 02:46:35;;;;;;;7.90;6.50;;;5.60;63.40;;;;;;5003170;28;20778;-58
2023/12/19 02:49:01;;;;;;;7.50;6.10;;;5.40;62.50;;;;;;5002459;28;20187;-58
2023/12/19 02:51:26;;;;;;;6.77;6.10;;;5.00;63.40;;;;;;5002868;28;20246;-58
2023/12/19 02:53:54;;;;;;;8.70;7.10;;;4.90;65.00;;;;;;5007550;28;20178;-59
2023/12/19 02:56:19;;;;;;;8.70;7.50;;;4.70;65.90;;;;;;5003893;28;20636;-58
2023/12/19 02:58:45;;;;;;;11.53;6.70;;;5.00;66.20;;;;;;5004435;28;20440;-59
2023/12/19 03:01:10;;;;;;;8.00;6.77;;;5.30;65.40;;;;;;5003513;28;20250;-58
2023/12/19 03:03:36;;;;;;;8.70;6.43;;;5.50;64.40;;;;;;4998723;28;20904;-59
2023/12/19 03:06:02;;;;;;;6.60;6.00;;;5.60;63.70;;;;;;4996928;28;20252;-59
2023/12/19 03:08:27;;;;;;;6.70;6.10;;;5.70;63.00;;;;;;5001908;28;20191;-58
2023/12/19 03:10:53;;;;;;;6.90;6.13;;;5.80;62.30;;;;;;4997868;28;20194;-59
2023/12/19 03:13:19;;;;;;;6.37;5.73;;;5.80;61.50;;;;;;5001259;28;20245;-57
2023/12/19 03:15:44;;;;;;;7.73;6.93;;;5.70;60.30;;;;;;5006149;28;20198;-60
2023/12/19 03:18:10;;;;;;;8.67;7.07;;;5.30;62.70;;;;;;5000555;28;20217;-59
2023/12/19 03:20:35;;;;;;;9.97;6.97;;;5.50;63.40;;;;;;4998891;28;20186;-57
2023/12/19 03:23:01;;;;;;;6.90;6.30;;;5.60;63.00;;;;;;5006348;28;20212;-59
2023/12/19 03:25:28;;;;;;;7.47;6.80;;;5.80;62.30;;;;;;4996290;28;20256;-57
2023/12/19 03:27:53;;;;;;;9.13;7.30;;;5.60;61.90;;;;;;5000147;28;20448;-58
2023/12/19 03:30:19;;;;;;;7.40;6.70;;;5.80;62.20;;;;;;4993488;28;20492;-59
2023/12/19 03:32:44;;;;;;;7.83;6.80;;;5.80;61.90;;;;;;5000329;28;20189;-59
2023/12/19 03:35:12;;;;;;;6.83;6.00;;;5.90;61.50;;;;;;5004072;28;20688;-57
2023/12/19 03:37:38;;;;;;;7.40;6.60;;;6.00;61.30;;;;;;4998810;28;20858;-57
2023/12/19 03:40:05;;;;;;;7.30;6.60;;;5.90;60.80;;;;;;5002424;28;20450;-59
2023/12/19 03:42:31;;;;;;;7.43;6.73;;;6.00;60.90;;;;;;5000956;28;20348;-59
2023/12/19 03:44:56;;;;;;;7.93;6.80;;;6.00;60.80;;;;;;5003737;28;20437;-59
2023/12/19 03:47:22;;;;;;;10.00;7.03;;;5.90;60.90;;;;;;4999851;28;20182;-59
2023/12/19 03:49:47;;;;;;;7.63;6.90;;;5.60;61.20;;;;;;5001936;28;20225;-58
2023/12/19 03:52:13;;;;;;;8.33;6.60;;;5.50;61.30;;;;;;5001076;28;20818;-59
2023/12/19 03:54:39;;;;;;;8.40;7.00;;;5.30;62.10;;;;;;5002011;28;20201;-58
2023/12/19 03:57:05;;;;;;;8.10;6.33;;;5.10;62.10;;;;;;4999272;28;20222;-56
2023/12/19 03:59:30;;;;;;;9.67;6.63;;;5.20;62.50;;;;;;5002159;28;20190;-57
2023/12/19 04:01:58;;;;;;;7.40;6.70;;;5.30;62.50;;;;;;5000495;28;20214;-57
2023/12/19 04:04:23;;;;;;;8.00;7.17;;;5.50;62.10;;;;;;5001373;28;20185;-58
2023/12/19 04:06:49;;;;;;;7.20;6.50;;;5.70;61.60;;;;;;4999000;28;20825;-57
2023/12/19 04:09:16;;;;;;;6.90;5.93;;;5.70;60.70;;;;;;5003255;28;20564;-57
2023/12/19 04:11:46;;;;;;;6.97;6.27;;;5.40;60.80;;;;;;4998877;28;20201;-58
2023/12/19 04:14:13;;;;;;;7.77;6.50;;;5.50;61.20;;;;;;5000782;28;20461;-57
2023/12/19 04:16:38;;;;;;;10.13;6.50;;;5.40;61.50;;;;;;5001719;28;20485;-56
2023/12/19 04:19:04;;;;;;;7.97;6.60;;;5.20;61.10;;;;;;4997183;28;20453;-59
2023/12/19 04:21:29;;;;;;;7.57;5.80;;;5.10;62.10;;;;;;4994573;28;20262;-58
2023/12/19 04:23:55;;;;;;;6.70;6.00;;;5.10;62.60;;;;;;5001393;28;20178;-58
2023/12/19 04:26:20;;;;;;;6.90;6.00;;;5.20;62.70;;;;;;4993103;28;20211;-58
2023/12/19 04:28:46;;;;;;;7.90;5.77;;;5.30;62.40;;;;;;5000587;28;20193;-59
2023/12/19 04:31:12;;;;;;;8.50;6.30;;;5.20;61.90;;;;;;4999151;28;20178;-58
2023/12/19 04:33:38;;;;;;;8.27;6.63;;;5.30;62.10;;;;;;4993791;28;20452;-60
2023/12/19 04:36:04;;;;;;;7.03;6.33;;;5.20;62.40;;;;;;4995326;28;20619;-59
2023/12/19 04:38:30;;;;;;;7.53;6.83;;;5.20;62.30;;;;;;4998937;28;20681;-56
2023/12/19 04:40:56;;;;;;;9.50;6.83;;;5.20;62.70;;;;;;5001161;28;20432;-59
2023/12/19 04:43:23;;;;;;;7.20;6.50;;;5.00;63.40;;;;;;4999877;28;20196;-58
2023/12/19 04:45:50;;;;;;;8.17;6.70;;;5.20;63.50;;;;;;4999249;28;20698;-57
2023/12/19 04:48:15;;;;;;;7.70;6.83;;;5.40;62.90;;;;;;5002927;28;20463;-58
2023/12/19 04:50:41;;;;;;;6.80;6.10;;;5.50;62.20;;;;;;4996356;28;20539;-59
2023/12/19 04:53:07;;;;;;;7.80;7.00;;;5.50;62.20;;;;;;4994698;28;20754;-58
2023/12/19 04:55:33;;;;;;;9.03;6.67;;;5.60;61.80;;;;;;5000614;28;20213;-57
2023/12/19 04:57:59;;;;;;;8.90;7.10;;;5.70;61.40;;;;;;5000103;28;20977;-57
2023/12/19 05:00:24;;;;;;;11.03;6.80;;;5.80;60.90;;;;;;5003010;28;20668;-57
2023/12/19 05:02:53;;;;;;;7.27;6.27;;;5.80;60.50;;;;;;4996204;28;20197;-59
2023/12/19 05:05:19;;;;;;;7.57;6.77;;;5.30;60.80;;;;;;5006721;28;20279;-57
2023/12/19 05:07:45;;;;;;;7.63;6.77;;;5.20;62.20;;;;;;5000857;28;20449;-57
2023/12/19 05:10:10;;;;;;;7.90;7.10;;;5.10;62.70;;;;;;5000784;28;20444;-57
2023/12/19 05:12:37;;;;;;;9.70;6.90;;;4.60;62.80;;;;;;5004365;28;20186;-59
2023/12/19 05:15:03;;;;;;;7.47;6.60;;;4.30;64.30;;;;;;5005666;28;20216;-58
2023/12/19 05:17:28;;;;;;;8.80;7.30;;;4.10;65.30;;;;;;4993433;28;21201;-58
2023/12/19 05:19:54;;;;;;;6.67;6.00;;;3.90;66.40;;;;;;4996958;28;20440;-58
2023/12/19 05:22:19;;;;;;;7.87;6.27;;;3.80;67.40;;;;;;4998467;28;20178;-59
2023/12/19 05:24:45;;;;;;;8.20;7.40;;;4.00;67.40;;;;;;4997004;28;20197;-57
2023/12/19 05:27:10;;;;;;;10.17;7.93;;;4.20;67.00;;;;;;4999207;28;20202;-57
2023/12/19 05:29:36;;;;;;;11.97;8.70;;;4.40;66.30;;;;;;4995448;28;20206;-58
2023/12/19 05:32:02;;;;;;;11.37;8.10;;;4.50;65.40;;;;;;5001420;28;20190;-59
2023/12/19 05:34:28;;;;;;;8.90;7.67;;;4.80;65.00;;;;;;4996006;28;20672;-59
2023/12/19 05:36:53;;;;;;;8.83;7.40;;;4.90;64.40;;;;;;4997926;28;20534;-58
2023/12/19 05:39:19;;;;;;;12.23;7.20;;;4.90;63.90;;;;;;4993632;28;20277;-59
2023/12/19 05:41:44;;;;;;;8.47;6.90;;;4.70;63.90;;;;;;5002471;28;20181;-58
2023/12/19 05:44:11;;;;;;;7.17;6.47;;;4.70;64.80;;;;;;5002710;28;20664;-59
2023/12/19 05:46:40;;;;;;;7.10;6.10;;;4.70;64.40;;;;;;5001881;28;20210;-58
2023/12/19 05:49:06;;;;;;;8.07;7.07;;;4.90;64.60;;;;;;4999391;28;20455;-58
2023/12/19 05:51:32;;;;;;;6.33;5.73;;;5.10;64.10;;;;;;4997995;28;20445;-55
2023/12/19 05:53:59;;;;;;;7.33;6.53;;;5.30;63.70;;;;;;5001217;28;20186;-59
2023/12/19 05:56:25;;;;;;;9.07;6.57;;;5.40;63.00;;;;;;4996820;28;20206;-59
2023/12/19 05:58:50;;;;;;;8.50;6.63;;;5.60;62.80;;;;;;4995849;28;21000;-59
2023/12/19 06:01:16;;;;;;;10.30;6.60;;;6.00;62.50;;;;;;4994044;28;20607;-58
2023/12/19 06:03:42;;;;;;;8.30;6.40;;;6.30;61.50;;;;;;4996653;28;20195;-59
2023/12/19 06:06:07;;;;;;;7.00;6.23;;;6.60;60.20;;;;;;4995655;28;20210;-60
2023/12/19 06:08:34;;;;;;;9.63;7.10;;;6.80;59.80;;;;;;4994471;28;20538;-59
2023/12/19 06:10:59;;;;;;;7.77;6.73;;;7.10;60.40;;;;;;4998818;28;20241;-59
2023/12/19 06:13:25;;;;;;;8.40;6.90;;;7.40;60.70;;;;;;5012200;28;20979;-59
2023/12/19 06:15:51;;;;;;;7.90;6.37;;;7.80;61.70;;;;;;4995074;28;20757;-58
2023/12/19 06:18:17;;;;;;;8.13;6.63;;;8.20;61.10;;;;;;4989373;28;20269;-59
2023/12/19 06:20:42;;;;;;;8.07;6.97;;;8.50;60.80;;;;;;4992970;28;20202;-58
2023/12/19 06:23:09;;;;;;;7.10;6.40;;;8.90;60.80;;;;;;4998822;28;21071;-59
2023/12/19 06:25:34;;;;;;;6.10;4.80;;;9.10;59.00;;;;;;4992980;28;20213;-60
2023/12/19 06:28:00;;;;;;;8.77;7.10;;;9.20;60.20;;;;;;4994755;28;20468;-58
2023/12/19 06:30:25;;;;;;;9.80;7.30;;;9.50;60.30;;;;;;4996002;28;20190;-59
2023/12/19 06:32:51;;;;;;;9.47;6.77;;;9.60;58.30;;;;;;4995316;28;20190;-58
2023/12/19 06:35:16;;;;;;;7.47;6.67;;;9.60;55.60;;;;;;4993956;28;20226;-59
2023/12/19 06:37:42;;;;;;;7.10;6.40;;;9.60;55.70;;;;;;4992302;28;20285;-57
2023/12/19 06:40:08;;;;;;;7.70;6.67;;;9.70;56.10;;;;;;4997046;28;20711;-59
2023/12/19 06:42:33;;;;;;;8.27;7.47;;;9.90;55.00;;;;;;4994017;28;20275;-57
2023/12/19 06:45:02;;;;;;;9.17;8.23;;;9.70;52.40;;;;;;4990627;28;20437;-57
2023/12/19 06:47:28;;;;;;;9.17;7.97;;;9.70;57.10;;;;;;4994016;28;20536;-57
2023/12/19 06:49:54;;;;;;;9.23;8.20;;;9.80;54.90;;;;;;4990774;28;20472;-58
2023/12/19 06:52:20;;;;;;;7.37;6.67;;;9.50;52.20;;;;;;4996351;28;20983;-58
2023/12/19 06:54:46;;;;;;;8.70;6.73;;;9.20;51.70;;;;;;4992240;28;20183;-59
2023/12/19 06:57:12;;;;;;;9.80;7.30;;;8.80;51.60;;;;;;4995079;28;20842;-58
2023/12/19 06:59:38;;;;;;;8.17;6.80;;;8.40;52.40;;;;;;4996118;28;20445;-56
2023/12/19 07:02:04;;;;;;;8.33;7.40;;;8.10;53.00;;;;;;4996522;28;21152;-58
2023/12/19 07:04:31;;;;;;;9.40;7.70;;;7.80;53.90;;;;;;4996265;28;20186;-60
2023/12/19 07:06:56;;;;;;;9.97;7.83;;;7.60;54.40;;;;;;4992381;28;20214;-59
2023/12/19 07:09:22;;;;;;;8.60;6.90;;;7.50;54.60;;;;;;4996730;28;22134;-59
2023/12/19 07:11:48;;;;;;;9.30;8.37;;;7.40;54.50;;;;;;4993566;28;20179;-59
2023/12/19 07:14:13;;;;;;;9.10;7.67;;;7.20;54.60;;;;;;4995287;28;20213;-58
2023/12/19 07:16:39;;;;;;;12.30;8.00;;;7.10;54.90;;;;;;4993433;28;20861;-59
2023/12/19 07:19:04;;;;;;;10.13;8.53;;;7.10;55.00;;;;;;4994774;28;20554;-58
2023/12/19 07:21:32;;;;;;;9.43;7.80;;;7.00;55.10;;;;;;4995220;28;20284;-58
2023/12/19 07:23:59;;;;;;;9.40;7.80;;;6.90;55.30;;;;;;4993380;28;20199;-59
2023/12/19 07:26:26;;;;;;;8.23;7.23;;;6.90;55.40;;;;;;4994955;28;20978;-57
2023/12/19 07:28:53;;;;;;;8.37;7.57;;;6.80;55.40;;;;;;4993014;28;20410;-58
2023/12/19 07:31:23;;;;;;;9.30;8.17;;;6.90;55.70;;;;;;4995890;28;20574;-59
2023/12/19 07:33:51;;;;;;;10.23;8.20;;;7.50;55.70;;;;;;4997695;28;21012;-55
2023/12/19 07:36:16;;;;;;;10.43;7.23;;;8.30;54.30;;;;;;4998394;28;20444;-57
2023/12/19 07:38:42;;;;;;;7.80;7.10;;;9.10;52.60;;;;;;4996668;28;20485;-58
2023/12/19 07:41:07;;;;;;;7.90;7.13;;;10.00;49.60;;;;;;4997312;28;20191;-59
2023/12/19 07:43:33;;;;;;;9.40;7.30;;;10.90;47.90;;;;;;4998118;28;20221;-59
2023/12/19 07:45:59;;;;;;;8.87;7.30;;;11.60;45.90;;;;;;4996247;28;20241;-60
2023/12/19 07:48:24;;;;;;;8.87;7.90;;;12.10;44.10;;;;;;4998353;28;20237;-59
2023/12/19 07:50:50;;;;;;;8.33;7.50;;;12.20;43.40;;;;;;4996687;28;20186;-58
2023/12/19 07:53:15;;;;;;;10.30;7.50;;;12.40;43.40;;;;;;4998727;28;20633;-60
2023/12/19 07:55:41;;;;;;;10.30;9.03;;;12.60;43.10;;;;;;4996264;28;20603;-60
2023/12/19 07:58:07;;;;;;;9.40;8.30;;;12.70;42.60;;;;;;4996787;28;20242;-59
2023/12/19 08:00:33;;;;;;;13.00;10.30;;;12.30;43.10;;;;;;4998572;28;20483;-61
2023/12/19 08:02:58;;;;;;;12.00;10.70;;;11.80;44.00;;;;;;4996428;28;20489;-58
2023/12/19 08:05:24;;;;;;;11.27;10.00;;;11.10;44.90;;;;;;4997887;28;20210;-59
2023/12/19 08:07:50;;;;;;;11.43;8.30;;;10.50;46.10;;;;;;4995818;28;20187;-60
2023/12/19 08:10:15;;;;;;;12.40;9.67;;;9.90;48.00;;;;;;4998247;28;20229;-59
2023/12/19 08:12:41;;;;;;;17.23;8.90;;;9.40;49.00;;;;;;4996275;28;20601;-60
2023/12/19 08:15:09;;;;;;;9.57;8.17;;;9.00;50.30;;;;;;4996197;28;20221;-59
2023/12/19 08:17:36;;;;;;;13.17;8.97;;;8.70;51.10;;;;;;4996687;28;20210;-60
2023/12/19 08:20:03;;;;;;;11.70;8.60;;;8.50;51.90;;;;;;4997605;28;20426;-60
2023/12/19 08:22:28;;;;;;;13.40;8.67;;;8.30;52.50;;;;;;4998048;28;20839;-60
2023/12/19 08:24:54;;;;;;;13.23;8.20;;;8.10;52.80;;;;;;4995336;28;20500;-60
2023/12/19 08:27:22;;;;;;;8.93;8.00;;;7.90;53.70;;;;;;4997765;28;20648;-59
2023/12/19 08:29:48;;;;;;;13.47;9.20;;;7.80;54.50;;;;;;4996057;28;20209;-60
2023/12/19 08:32:14;;;;;;;11.70;9.10;;;7.70;54.80;;;;;;4997674;28;20438;-59
2023/12/19 08:34:41;;;;;;;10.80;8.80;;;7.70;55.20;;;;;;4995728;28;20826;-59
2023/12/19 08:37:06;;;;;;;9.03;8.20;;;7.70;55.50;;;;;;4996237;28;20215;-61
2023/12/19 08:39:32;;;;;;;10.83;8.87;;;7.60;55.60;;;;;;4997015;28;20844;-59
2023/12/19 08:41:59;;;;;;;11.53;9.00;;;7.50;56.10;;;;;;5000591;28;20671;-58
2023/12/19 08:44:26;;;;;;;13.20;9.80;;;7.10;57.50;;;;;;4996924;28;20269;-60
2023/12/19 08:46:52;;;;;;;10.03;8.80;;;7.10;57.90;;;;;;4995452;28;20980;-58
2023/12/19 08:49:18;;;;;;;10.50;8.77;;;7.30;57.90;;;;;;4997481;28;20444;-60
2023/12/19 08:51:48;;;;;;;12.10;9.00;;;7.30;58.10;;;;;;4995582;28;20426;-58
2023/12/19 08:54:14;;;;;;;11.53;9.20;;;7.40;58.20;;;;;;4997343;28;20265;-58
2023/12/19 08:56:41;;;;;;;12.57;10.70;;;7.40;58.40;;;;;;4995144;28;20454;-59
2023/12/19 08:59:06;;;;;;;12.17;9.00;;;7.30;58.60;;;;;;4995665;28;20913;-60
2023/12/19 09:01:32;;;;;;;10.60;9.40;;;7.40;58.90;;;;;;4995764;28;20506;-61
2023/12/19 09:04:00;;;;;;;11.10;9.80;;;7.50;58.80;;;;;;4995412;28;20649;-59
2023/12/19 09:06:25;;;;;;;16.70;10.83;;;7.60;58.90;;;;;;4996853;28;20318;-60
2023/12/19 09:08:51;;;;;;;11.67;10.47;;;7.70;58.70;;;;;;4994830;28;20830;-60
2023/12/19 09:11:16;;;;;;;14.07;10.73;;;7.80;58.40;;;;;;4997330;28;20701;-59
2023/12/19 09:13:42;;;;;;;15.53;11.17;;;7.80;58.30;;;;;;4995484;28;20551;-59
2023/12/19 09:16:07;;;;;;;15.57;10.90;;;7.80;58.60;;;;;;4995248;28;20864;-59
2023/12/19 09:18:33;;;;;;;11.50;10.37;;;7.90;58.60;;;;;;4996126;28;20603;-60
2023/12/19 09:21:00;;;;;;;11.80;10.47;;;8.00;58.60;;;;;;4996573;28;20182;-61
2023/12/19 09:23:25;;;;;;;12.10;10.80;;;8.20;58.70;;;;;;4997327;28;20185;-60
2023/12/19 09:25:51;;;;;;;14.50;11.87;;;8.30;59.10;;;;;;4994377;28;20452;-60
2023/12/19 09:28:16;;;;;;;11.77;10.40;;;8.40;59.20;;;;;;4996863;28;20186;-59
2023/12/19 09:30:42;;;;;;;13.17;10.40;;;8.40;58.80;;;;;;4995452;28;20189;-59
2023/12/19 09:33:07;;;;;;;13.30;10.50;;;8.50;57.90;;;;;;4995768;28;20193;-60
2023/12/19 09:35:33;;;;;;;11.60;10.30;;;8.60;58.40;;;;;;4995889;28;20212;-61
2023/12/19 09:38:01;;;;;;;13.43;9.93;;;8.80;58.60;;;;;;4994588;28;20218;-58
2023/12/19 09:40:31;;;;;;;11.60;9.73;;;9.00;57.90;;;;;;4994809;28;20565;-60
2023/12/19 09:42:58;;;;;;;14.20;11.20;;;9.20;58.00;;;;;;4998780;28;20445;-59
2023/12/19 09:45:24;;;;;;;11.57;9.23;;;9.50;57.80;;;;;;4996145;28;21007;-60
2023/12/19 09:48:00;;;;;;;13.30;9.20;;;9.80;56.70;;;;;;4994377;28;20806;-58
2023/12/19 09:50:27;;;;;;;11.00;9.20;;;10.30;54.80;;;;;;4996921;28;20425;-59
2023/12/19 09:52:57;;;;;;;11.13;9.93;;;10.70;53.40;;;;;;4994565;28;20425;-59
2023/12/19 09:55:25;;;;;;;11.30;10.10;;;11.20;52.10;;;;;;4995490;28;21145;-59
2023/12/19 09:57:53;;;;;;;11.97;9.37;;;11.40;51.00;;;;;;4993955;28;20784;-60
2023/12/19 10:00:20;;;;;;;12.03;9.80;;;11.60;50.60;;;;;;4996495;28;20425;-59
2023/12/19 10:02:45;;;;;;;11.60;9.97;;;11.60;50.50;;;;;;4994457;28;20477;-60
2023/12/19 10:05:11;;;;;;;11.57;9.70;;;11.70;50.80;;;;;;4994896;28;20438;-59
2023/12/19 10:07:36;;;;;;;11.07;9.47;;;11.70;50.70;;;;;;4995116;28;20314;-59
2023/12/19 10:10:03;;;;;;;11.90;9.83;;;11.70;50.10;;;;;;4994323;28;20186;-60
2023/12/19 10:12:29;;;;;;;10.30;9.20;;;11.60;49.90;;;;;;4996353;28;20228;-58
2023/12/19 10:15:13;;;;;;;12.70;9.87;;;11.40;50.20;;;;;;4993397;28;21044;-59
2023/12/19 10:17:39;;;;;;;10.43;9.33;;;11.30;50.80;;;;;;4993742;28;20526;-60
2023/12/19 10:20:11;;;;;;;11.20;9.37;;;11.30;50.50;;;;;;4995976;28;20434;-60
2023/12/19 10:22:40;;;;;;;11.93;8.63;;;11.10;50.20;;;;;;4995005;28;20425;-58
2023/12/19 10:25:07;;;;;;;13.10;9.67;;;11.10;50.30;;;;;;4993870;28;20512;-59
2023/12/19 10:27:33;;;;;;;12.43;9.80;;;11.00;50.60;;;;;;4995221;28;20799;-61
2023/12/19 10:30:21;;;;;;;11.90;10.30;;;10.90;50.80;;;;;;4996375;28;20544;-59
2023/12/19 10:32:46;;;;;;;13.07;10.60;;;10.70;51.20;;;;;;4994243;28;20206;-59
2023/12/19 10:35:12;;;;;;;13.67;10.10;;;10.50;51.90;;;;;;4995531;28;20481;-60
2023/12/19 10:37:38;;;;;;;19.40;9.87;;;10.40;52.40;;;;;;4994384;28;20211;-58
2023/12/19 10:40:14;;;;;;;10.33;9.23;;;10.30;52.60;;;;;;4993783;28;20191;-59
2023/12/19 10:42:39;;;;;;;12.87;9.70;;;10.20;52.60;;;;;;4999254;28;20495;-60
2023/12/19 10:45:06;;;;;;;10.27;9.03;;;10.10;52.50;;;;;;4993536;28;20493;-59
2023/12/19 10:47:32;;;;;;;10.90;9.47;;;10.10;52.70;;;;;;4995102;28;20178;-60
2023/12/19 10:49:57;;;;;;;13.83;9.87;;;9.90;53.70;;;;;;4993693;28;20432;-59
2023/12/19 10:52:26;;;;;;;10.77;9.10;;;9.80;53.90;;;;;;4996187;28;20683;-59
2023/12/19 10:55:00;;;;;;;11.13;9.63;;;9.80;54.00;;;;;;4993141;28;20206;-60
2023/12/19 10:57:36;;;;;;;11.30;9.63;;;9.70;54.00;;;;;;4996076;28;20499;-59
2023/12/19 11:00:13;;;;;;;10.30;9.27;;;9.70;54.10;;;;;;4993392;28;20448;-59
2023/12/19 11:02:56;;;;;;;11.43;9.53;;;9.70;54.60;;;;;;4994653;28;20927;-60
2023/12/19 11:05:30;;;;;;;13.33;9.00;;;9.70;54.50;;;;;;4995457;28;20459;-58
2023/12/19 11:08:03;;;;;;;11.10;9.53;;;9.80;54.40;;;;;;4997587;28;20425;-57
2023/12/19 11:10:37;;;;;;;11.03;9.37;;;9.90;54.30;;;;;;4996982;28;20429;-58
2023/12/19 11:13:04;;;;;;;11.20;8.80;;;9.80;54.10;;;;;;4997396;28;20528;-60
2023/12/19 11:15:30;;;;;;;11.23;9.07;;;9.80;54.30;;;;;;4998643;28;20967;-59
2023/12/19 11:18:13;;;;;;;12.27;9.20;;;9.80;54.80;;;;;;4997314;28;20467;-60
2023/12/19 11:20:45;;;;;;;11.93;9.40;;;9.90;54.60;;;;;;4996785;28;20526;-59
2023/12/19 11:23:25;;;;;;;10.17;9.03;;;10.00;53.70;;;;;;5004139;28;20930;-60
2023/12/19 11:26:03;;;;;;;10.10;8.80;;;10.20;53.60;;;;;;4996675;28;20437;-59
2023/12/19 11:28:40;;;;;;;12.70;8.63;;;10.30;53.10;;;;;;4997033;28;20511;-60
2023/12/19 11:31:35;;;;;;;13.23;9.07;;;10.40;53.00;;;;;;4997668;28;20896;-58
2023/12/19 11:34:22;;;;;;;8.77;7.30;;;10.40;52.80;;;;;;4997054;28;20424;-58
2023/12/19 11:37:02;;;;;;;12.43;7.83;;;10.50;52.40;;;;;;4998406;28;20481;-60
2023/12/19 11:39:29;;;;;;;10.93;9.10;;;10.50;52.70;;;;;;4998847;28;20428;-60
2023/12/19 11:41:55;;;;;;;9.90;8.70;;;10.50;52.80;;;;;;5001661;28;20491;-60
2023/12/19 11:44:33;;;;;;;12.83;10.13;;;10.50;52.70;;;;;;4998653;28;20418;-60
2023/12/19 11:47:15;;;;;;;15.27;10.63;;;10.50;52.40;;;;;;4996753;28;20665;-59
2023/12/19 11:49:41;;;;;;;12.53;9.17;;;10.40;52.30;;;;;;4996313;28;20919;-59
2023/12/19 11:52:06;;;;;;;10.10;8.93;;;10.40;52.50;;;;;;4997292;28;20432;-59
2023/12/19 11:54:32;;;;;;;12.47;9.50;;;10.50;52.90;;;;;;4997687;28;20188;-60
2023/12/19 11:56:59;;;;;;;10.23;7.50;;;10.60;52.80;;;;;;4996624;28;20214;-59
2023/12/19 11:59:48;;;;;;;9.47;8.30;;;10.60;52.30;;;;;;4998591;28;20194;-60
2023/12/19 12:02:33;;;;;;;14.80;9.57;;;10.60;52.60;;;;;;4998509;28;20430;-60
2023/12/19 12:05:19;;;;;;;10.70;9.00;;;10.80;52.00;;;;;;4997784;28;20434;-60
2023/12/19 12:07:51;;;;;;;9.50;8.20;;;10.70;51.60;;;;;;4996669;28;20821;-60
2023/12/19 12:10:20;;;;;;;13.03;10.77;;;10.80;51.70;;;;;;4998300;28;20488;-58
2023/12/19 12:12:46;;;;;;;10.20;8.53;;;10.90;51.50;;;;;;5000316;28;20437;-60
2023/12/19 12:15:18;;;;;;;10.67;8.77;;;11.00;51.20;;;;;;4997088;28;20450;-60
2023/12/19 12:17:44;;;;;;;10.17;8.10;;;10.90;51.20;;;;;;4995788;28;20567;-58
2023/12/19 12:20:10;;;;;;;10.97;9.10;;;10.90;51.10;;;;;;4997027;28;20434;-60
2023/12/19 12:22:36;;;;;;;9.13;8.23;;;11.00;51.50;;;;;;4997377;28;20793;-59
2023/12/19 12:25:02;;;;;;;9.07;8.07;;;11.00;51.10;;;;;;4995614;28;20186;-60
2023/12/19 12:27:28;;;;;;;10.30;7.93;;;11.30;50.90;;;;;;4997310;28;20182;-59
2023/12/19 12:29:54;;;;;;;9.07;8.17;;;11.20;50.80;;;;;;4995839;28;20796;-59
2023/12/19 12:32:21;;;;;;;8.10;7.30;;;11.00;50.60;;;;;;5000967;28;20194;-59
2023/12/19 12:34:47;;;;;;;8.13;7.30;;;11.10;50.70;;;;;;4995472;28;20434;-59
2023/12/19 12:37:16;;;;;;;7.90;7.10;;;11.10;50.70;;;;;;4997417;28;21018;-59
2023/12/19 12:39:42;;;;;;;9.67;7.13;;;11.10;50.90;;;;;;4996039;28;20202;-61
2023/12/19 12:42:08;;;;;;;8.87;7.77;;;11.20;50.50;;;;;;5001323;28;20456;-60
2023/12/19 12:44:33;;;;;;;8.00;7.20;;;11.30;50.20;;;;;;4996658;28;20605;-60
2023/12/19 12:47:00;;;;;;;7.00;6.30;;;11.40;50.30;;;;;;4995763;28;20215;-60
2023/12/19 12:49:25;;;;;;;9.77;7.70;;;11.40;50.00;;;;;;4997820;28;20201;-60